Terminal Aerodrome Forecast
Issued by NWS Chicago, IL

Home | Current Version | Previous Version | Text Only | Print | Product List | Glossary Off
Versions: 1 2 3 4 5 6 7 8 9 10 11 12 13 14 15 16 17 18 19 20 21 22 23 24 25 26 27 28 29 30 31 32 33 34 35 36

000
FTUS43 KLOT 211900 AAA
TAFRFD
TAF AMD
KRFD 211955Z 2120/2218 17013G17KT 5SM HZ SCT012 OVC025
      TEMPO 2120/2123 6SM SCT025 OVC035
     FM212300 15012KT P6SM BKN020 OVC035
     FM220900 14011KT P6SM OVC035
     FM221600 12013KT 5SM -RASN BR SCT012 BKN025=

USA.gov is the U.S. government's official web portal to all federal, state and local government web resources and services.